Time;durP1;ratioP1;P1;durP2;ratioP2;P2;SDS_P1;SDS_P2;PMS_P1;PMS_P2;Temp;Humidity;BMP_temperature;BMP_pressure;BME280_temperature;BME280_humidity;BME280_pressure;Samples;Min_cycle;Max_cycle;Signal;HPM_P1;HPM_P2
2021/01/13 00:00:20;;;;;;;11.25;7.95;;;;;;;0.84;82.14;95487.94;4987075;28;20062;-46
2021/01/13 00:02:47;;;;;;;10.52;7.38;;;;;;;0.74;81.84;95488.03;4987443;28;20050;-49
2021/01/13 00:05:14;;;;;;;9.70;7.25;;;;;;;0.72;81.68;95492.88;4985523;28;20420;-46
2021/01/13 00:07:48;;;;;;;11.35;8.02;;;;;;;0.74;82.18;95488.03;4985611;28;20042;-47
2021/01/13 00:10:15;;;;;;;10.27;7.57;;;;;;;0.42;82.61;95468.09;4985696;28;20452;-45
2021/01/13 00:12:42;;;;;;;11.02;7.57;;;;;;;0.52;82.61;95493.03;4971775;28;20153;-47
2021/01/13 00:15:09;;;;;;;11.75;8.15;;;;;;;0.38;83.19;95488.34;4987069;28;20196;-48
2021/01/13 00:17:36;;;;;;;11.88;7.95;;;;;;;0.64;82.80;95496.13;4993014;28;20077;-44
2021/01/13 00:20:07;;;;;;;11.80;7.38;;;;;;;0.32;83.42;95489.44;4991229;28;20058;-47
2021/01/13 00:22:33;;;;;;;12.48;8.35;;;;;;;0.33;83.51;95495.59;4992154;28;20416;-47
2021/01/13 00:25:00;;;;;;;13.40;8.00;;;;;;;0.46;82.66;95479.78;4991803;28;20050;-45
2021/01/13 00:27:26;;;;;;;12.07;8.30;;;;;;;0.53;82.26;95473.34;4992085;28;20426;-45
2021/01/13 00:29:53;;;;;;;11.63;8.35;;;;;;;0.66;81.28;95473.47;4978936;28;20074;-47
2021/01/13 00:32:20;;;;;;;11.23;8.05;;;;;;;0.92;80.26;95492.66;4981633;28;20137;-43
2021/01/13 00:34:47;;;;;;;11.63;7.43;;;;;;;0.72;79.84;95484.09;4972707;28;20054;-47
2021/01/13 00:37:16;;;;;;;12.45;8.23;;;;;;;0.94;79.76;95489.72;4991353;28;20050;-46
2021/01/13 00:39:43;;;;;;;12.50;8.65;;;;;;;0.85;80.07;95502.88;4992502;28;20089;-42
2021/01/13 00:42:10;;;;;;;11.90;7.93;;;;;;;0.87;79.44;95505.22;4980389;28;20390;-46
2021/01/13 00:44:36;;;;;;;10.82;7.82;;;;;;;0.83;79.24;95489.03;4972366;28;20523;-43
2021/01/13 00:47:03;;;;;;;12.68;8.68;;;;;;;0.73;79.99;95493.66;4972782;28;20082;-43
2021/01/13 00:49:30;;;;;;;12.35;8.32;;;;;;;0.87;79.71;95510.56;4980740;28;20137;-45
2021/01/13 00:51:56;;;;;;;13.18;8.68;;;;;;;0.69;80.13;95518.19;4992233;28;20062;-46
2021/01/13 00:54:23;;;;;;;14.88;8.48;;;;;;;0.51;80.98;95523.38;4991682;28;20475;-48
2021/01/13 00:56:50;;;;;;;12.38;8.52;;;;;;;0.64;80.37;95523.53;4991902;28;20058;-44
2021/01/13 00:59:16;;;;;;;15.85;9.60;;;;;;;0.62;80.50;95533.69;4991133;28;20555;-48
2021/01/13 01:01:45;;;;;;;15.55;9.85;;;;;;;0.45;81.67;95534.06;4976064;28;20070;-46
2021/01/13 01:04:13;;;;;;;12.00;8.18;;;;;;;0.65;80.79;95533.13;4975574;28;20054;-47
2021/01/13 01:06:40;;;;;;;12.63;8.73;;;;;;;0.53;80.90;95532.69;4977000;28;20058;-45
2021/01/13 01:09:08;;;;;;;12.73;8.68;;;;;;;0.78;79.80;95536.19;4994352;28;20050;-48
2021/01/13 01:11:37;;;;;;;10.73;7.43;;;;;;;0.33;81.04;95538.16;4995187;28;20054;-45
2021/01/13 01:14:08;;;;;;;14.77;9.25;;;;;;;0.58;80.36;95535.28;4994718;28;20511;-46
2021/01/13 01:16:37;;;;;;;13.77;9.07;;;;;;;0.65;79.99;95545.63;4983805;28;20165;-49
2021/01/13 01:19:06;;;;;;;16.85;9.70;;;;;;;0.37;80.71;95542.66;4975616;28;20075;-45
2021/01/13 01:21:33;;;;;;;13.10;8.30;;;;;;;0.50;80.18;95543.88;4975961;28;20059;-45
2021/01/13 01:24:00;;;;;;;14.68;8.45;;;;;;;0.68;79.88;95542.41;4975549;28;20054;-43
2021/01/13 01:26:26;;;;;;;14.68;9.68;;;;;;;0.79;79.28;95540.47;4975641;28;20061;-45
2021/01/13 01:28:53;;;;;;;14.00;8.48;;;;;;;0.15;80.06;95478.41;4975318;28;20082;-45
2021/01/13 01:31:20;;;;;;;14.20;8.20;;;;;;;0.51;80.22;95540.16;4975961;28;20499;-46
2021/01/13 01:33:47;;;;;;;16.27;10.05;;;;;;;0.42;80.50;95534.63;4975096;28;20061;-45
2021/01/13 01:36:17;;;;;;;16.85;9.30;;;;;;;0.38;81.00;95538.13;4975440;28;20082;-47
2021/01/13 01:38:44;;;;;;;14.10;8.55;;;;;;;0.49;79.91;95544.97;4992963;28;20101;-44
2021/01/13 01:41:15;;;;;;;13.30;8.88;;;;;;;0.60;79.42;95548.34;4994876;28;20050;-44
2021/01/13 01:43:45;;;;;;;12.80;8.50;;;;;;;0.59;79.38;95542.22;4994513;28;20083;-46
2021/01/13 01:46:13;;;;;;;13.88;8.63;;;;;;;0.48;79.80;95546.03;4994766;28;20082;-44
2021/01/13 01:49:00;;;;;;;12.18;7.90;;;;;;;0.51;79.68;95547.34;4981445;28;20081;-46
2021/01/13 01:51:40;;;;;;;13.98;8.20;;;;;;;0.41;79.98;95548.22;4973723;28;20102;-45
2021/01/13 01:54:15;;;;;;;11.95;7.90;;;;;;;0.43;79.82;95554.06;4990199;28;20047;-46
2021/01/13 01:56:42;;;;;;;11.88;7.63;;;;;;;0.17;80.85;95561.41;4975247;28;20223;-44
2021/01/13 01:59:12;;;;;;;13.68;7.85;;;;;;;0.37;79.51;95555.16;4974721;28;20169;-45
2021/01/13 02:01:43;;;;;;;12.10;7.60;;;;;;;0.28;79.71;95573.56;4975233;28;20109;-46
2021/01/13 02:04:14;;;;;;;15.43;7.93;;;;;;;0.08;80.70;95573.69;4974473;28;20378;-46
2021/01/13 02:07:03;;;;;;;12.98;7.75;;;;;;;0.18;80.28;95574.41;4974505;28;20042;-45
2021/01/13 02:09:31;;;;;;;12.10;7.00;;;;;;;0.23;79.50;95579.72;4973660;28;20579;-49
2021/01/13 02:11:58;;;;;;;12.45;7.43;;;;;;;0.08;80.17;95581.66;4974709;28;20090;-44
2021/01/13 02:14:26;;;;;;;12.15;7.63;;;;;;;0.04;80.52;95584.09;4980698;28;20126;-46
2021/01/13 02:16:57;;;;;;;11.98;7.55;;;;;;;0.06;79.94;95586.47;4986297;28;20389;-46
2021/01/13 02:19:48;;;;;;;10.85;6.70;;;;;;;0.16;79.51;95587.22;4981755;28;20062;-49
2021/01/13 02:22:18;;;;;;;13.93;7.50;;;;;;;0.04;79.89;95580.63;4993980;28;20070;-45
2021/01/13 02:25:04;;;;;;;14.27;6.95;;;;;;;-0.05;79.99;95580.41;4992409;28;20487;-45
2021/01/13 02:28:01;;;;;;;11.10;6.38;;;;;;;0.03;79.91;95577.16;4979196;28;20046;-47
2021/01/13 02:30:38;;;;;;;11.27;6.13;;;;;;;0.05;79.62;95575.03;4974570;28;20158;-47
2021/01/13 02:33:50;;;;;;;11.95;6.35;;;;;;;0.07;79.47;95574.78;4974292;28;20055;-47
2021/01/13 02:36:48;;;;;;;11.18;6.70;;;;;;;0.23;78.46;95582.38;4959266;28;20081;-50
2021/01/13 02:39:18;;;;;;;11.40;6.90;;;;;;;0.08;78.59;95574.47;4974372;28;20091;-50
2021/01/13 02:41:46;;;;;;;11.88;6.38;;;;;;;-0.10;78.34;95561.78;4974415;28;20055;-47
2021/01/13 02:44:13;;;;;;;12.00;6.53;;;;;;;0.17;78.36;95588.00;4973294;28;20047;-47
2021/01/13 02:46:54;;;;;;;10.35;5.70;;;;;;;0.02;78.57;95596.06;5000407;28;20080;-46
2021/01/13 02:49:30;;;;;;;13.93;6.63;;;;;;;0.02;78.93;95590.75;4995438;28;20051;-46
2021/01/13 02:51:58;;;;;;;12.52;6.50;;;;;;;0.01;79.10;95589.16;4973843;28;20149;-47
2021/01/13 02:54:31;;;;;;;8.95;5.68;;;;;;;0.11;78.77;95589.88;4973475;28;20043;-49
2021/01/13 02:57:21;;;;;;;11.30;6.30;;;;;;;0.04;78.46;95617.88;4973940;28;20054;-46
2021/01/13 02:59:49;;;;;;;11.82;6.22;;;;;;;0.21;77.83;95589.84;4969026;28;20800;-47
2021/01/13 03:02:16;;;;;;;12.10;6.13;;;;;;;0.32;77.44;95589.78;4973532;28;20050;-45
2021/01/13 03:04:44;;;;;;;11.05;6.18;;;;;;;0.15;77.80;95587.47;4972234;28;20137;-45
2021/01/13 03:07:12;;;;;;;15.15;6.43;;;;;;;0.14;77.93;95591.22;4972205;28;20053;-48
2021/01/13 03:09:41;;;;;;;12.77;6.47;;;;;;;0.04;78.68;95593.94;4973651;28;20059;-48
2021/01/13 03:12:17;;;;;;;10.55;6.30;;;;;;;0.19;77.89;95602.59;4973560;28;20082;-45
2021/01/13 03:14:52;;;;;;;10.38;6.32;;;;;;;0.06;78.44;95592.56;5004688;22;20141;-41
2021/01/13 03:17:50;;;;;;;11.02;6.45;;;;;;;0.10;77.99;95595.47;4993299;28;20046;-40
2021/01/13 03:20:25;;;;;;;12.32;6.10;;;;;;;-0.06;78.65;95600.09;4974585;28;20137;-41
2021/01/13 03:23:04;;;;;;;10.57;6.40;;;;;;;-0.20;79.04;95594.53;4992437;28;20057;-40
2021/01/13 03:25:36;;;;;;;14.18;7.07;;;;;;;-0.12;79.11;95587.88;4980915;28;20051;-43
2021/01/13 03:28:05;;;;;;;12.52;6.93;;;;;;;-0.14;79.40;95585.47;4955327;28;20130;-44
2021/01/13 03:30:34;;;;;;;11.02;6.47;;;;;;;-0.02;78.58;95582.50;4953353;28;20062;-42
2021/01/13 03:33:04;;;;;;;13.73;7.03;;;;;;;-0.03;78.37;95583.59;4957554;28;20444;-41
2021/01/13 03:35:38;;;;;;;12.45;6.75;;;;;;;-0.38;79.87;95572.03;4969705;28;20082;-41
2021/01/13 03:38:13;;;;;;;17.05;7.22;;;;;;;-0.09;79.08;95593.44;4953483;28;20094;-40
2021/01/13 03:40:42;;;;;;;13.15;6.65;;;;;;;-0.24;78.99;95574.88;4953688;28;20048;-42
2021/01/13 03:43:17;;;;;;;12.32;7.22;;;;;;;-0.26;79.69;95593.78;4953468;28;20070;-45
2021/01/13 03:45:53;;;;;;;17.20;8.68;;;;;;;-0.23;78.82;95581.78;4964156;28;20079;-42
2021/01/13 03:48:50;;;;;;;14.35;7.72;;;;;;;-0.44;79.93;95589.03;4972930;28;20050;-43
2021/01/13 03:51:26;;;;;;;13.48;7.20;;;;;;;-0.41;80.04;95588.50;4953255;28;20075;-41
2021/01/13 03:53:53;;;;;;;14.90;8.02;;;;;;;-0.29;79.39;95589.00;4952533;28;20071;-42
2021/01/13 03:56:25;;;;;;;12.77;7.43;;;;;;;-0.17;79.28;95593.22;4953199;28;20083;-41
2021/01/13 03:58:52;;;;;;;12.65;7.43;;;;;;;-0.11;78.73;95600.88;4953455;28;20059;-43
2021/01/13 04:01:21;;;;;;;13.23;7.60;;;;;;;-0.30;79.14;95606.00;4953390;29;20055;-42
2021/01/13 04:03:54;;;;;;;14.43;7.60;;;;;;;-0.12;78.54;95606.50;4952806;29;20127;-42
2021/01/13 04:06:21;;;;;;;14.63;8.60;;;;;;;-0.26;79.54;95606.25;4951628;28;20134;-42
2021/01/13 04:08:48;;;;;;;13.30;6.93;;;;;;;-0.52;79.68;95584.28;4953031;28;20071;-42
2021/01/13 04:11:18;;;;;;;12.07;7.43;;;;;;;-0.20;79.14;95609.69;4970495;28;20099;-44
2021/01/13 04:13:47;;;;;;;13.65;7.78;;;;;;;-0.13;78.72;95607.53;4950904;28;20381;-44
2021/01/13 04:16:16;;;;;;;15.45;7.47;;;;;;;-0.18;78.95;95613.69;4952797;28;20509;-42
2021/01/13 04:18:45;;;;;;;12.88;7.60;;;;;;;-0.07;78.36;95617.09;4952074;28;20058;-44
2021/01/13 04:21:14;;;;;;;14.77;7.55;;;;;;;-0.15;78.74;95620.34;4953334;28;20058;-41
2021/01/13 04:23:42;;;;;;;14.77;7.80;;;;;;;-0.04;78.59;95608.56;4952436;28;20048;-41
2021/01/13 04:26:10;;;;;;;15.75;7.60;;;;;;;-0.04;78.60;95608.56;4953027;28;20055;-42
2021/01/13 04:28:37;;;;;;;16.65;7.75;;;;;;;-0.05;78.67;95607.78;4952708;28;20390;-42
2021/01/13 04:31:04;;;;;;;16.20;8.23;;;;;;;-0.08;78.57;95615.50;4953680;28;20057;-42
2021/01/13 04:33:31;;;;;;;12.63;7.30;;;;;;;-0.14;78.82;95608.63;4955373;29;20047;-41
2021/01/13 04:35:58;;;;;;;16.63;7.97;;;;;;;-0.02;78.58;95614.44;4957036;28;20676;-42
2021/01/13 04:38:30;;;;;;;13.63;7.97;;;;;;;0.12;78.09;95623.41;4956835;28;20055;-43
2021/01/13 04:41:15;;;;;;;15.95;8.50;;;;;;;-0.05;78.40;95617.63;4957257;29;20416;-49
2021/01/13 04:43:54;;;;;;;16.65;8.57;;;;;;;-0.10;78.82;95628.28;4956621;28;20139;-43
2021/01/13 04:46:21;;;;;;;15.60;8.15;;;;;;;-0.03;78.69;95616.28;4975967;28;20051;-42
2021/01/13 04:48:59;;;;;;;16.52;8.73;;;;;;;0.07;78.05;95630.63;4972721;28;20054;-42
2021/01/13 04:51:25;;;;;;;17.70;7.75;;;;;;;0.02;78.37;95639.41;4957232;28;20137;-43
2021/01/13 04:53:54;;;;;;;12.75;8.20;;;;;;;0.05;78.05;95643.38;4956554;28;20481;-42
2021/01/13 04:56:26;;;;;;;13.38;7.90;;;;;;;-0.05;78.20;95625.59;4956870;28;20063;-42
2021/01/13 04:59:19;;;;;;;12.40;7.03;;;;;;;0.08;78.01;95638.31;4956558;28;20063;-42
2021/01/13 05:01:54;;;;;;;17.55;8.48;;;;;;;0.02;77.95;95633.28;4955451;28;20130;-41
2021/01/13 05:04:26;;;;;;;20.40;8.13;;;;;;;-0.02;78.41;95643.69;4954673;28;20043;-43
2021/01/13 05:07:14;;;;;;;15.32;8.02;;;;;;;-0.05;78.58;95649.53;4956834;29;20134;-43
2021/01/13 05:09:50;;;;;;;14.70;7.40;;;;;;;-0.01;78.45;95650.59;4961373;28;20043;-43
2021/01/13 05:12:17;;;;;;;16.75;7.82;;;;;;;-0.16;79.00;95651.44;4975545;28;20573;-43
2021/01/13 05:14:45;;;;;;;15.65;7.55;;;;;;;-0.02;78.19;95647.13;4974933;28;20146;-45
2021/01/13 05:17:33;;;;;;;15.75;7.40;;;;;;;0.13;77.72;95664.09;4956299;29;20058;-42
2021/01/13 05:20:06;;;;;;;20.13;8.00;;;;;;;0.16;77.69;95671.53;4955721;28;20059;-43
2021/01/13 05:22:36;;;;;;;14.80;8.30;;;;;;;-0.06;78.51;95674.56;4956275;28;20078;-44
2021/01/13 05:25:07;;;;;;;17.85;8.60;;;;;;;-0.01;78.28;95674.53;4955611;28;20430;-41
2021/01/13 05:27:42;;;;;;;16.65;7.50;;;;;;;-0.09;78.35;95675.88;4956123;28;20102;-40
2021/01/13 05:30:09;;;;;;;17.77;8.70;;;;;;;-0.06;78.53;95677.22;4955649;28;20130;-41
2021/01/13 05:32:41;;;;;;;14.68;8.45;;;;;;;-0.08;78.64;95666.03;4956249;28;20043;-44
2021/01/13 05:35:09;;;;;;;21.65;10.38;;;;;;;0.00;78.33;95684.13;4955017;28;20099;-48
2021/01/13 05:37:49;;;;;;;16.55;8.68;;;;;;;-0.13;79.38;95684.66;4955653;29;20056;-42
2021/01/13 05:40:16;;;;;;;21.33;9.15;;;;;;;-0.16;78.85;95677.22;4973890;28;20085;-42
2021/01/13 05:42:45;;;;;;;16.98;8.40;;;;;;;-0.01;78.50;95693.94;4974952;28;20739;-46
2021/01/13 05:45:12;;;;;;;16.00;8.18;;;;;;;-0.04;78.54;95689.16;4974386;28;20109;-45
2021/01/13 05:47:45;;;;;;;24.50;9.18;;;;;;;-0.02;78.79;95696.88;4974575;28;20077;-43
2021/01/13 05:50:16;;;;;;;18.10;9.60;;;;;;;0.05;77.97;95696.59;4978330;28;20138;-47
2021/01/13 05:52:47;;;;;;;20.58;8.70;;;;;;;0.14;77.37;95706.41;4994213;28;20419;-48
2021/01/13 05:55:18;;;;;;;17.55;8.88;;;;;;;-0.15;78.98;95702.75;4993297;28;20097;-44
2021/01/13 05:57:58;;;;;;;19.90;8.57;;;;;;;-0.05;78.80;95706.19;4979623;28;20090;-42
2021/01/13 06:00:32;;;;;;;16.55;7.70;;;;;;;0.09;77.94;95716.25;4955770;29;20517;-43
2021/01/13 06:03:04;;;;;;;20.50;8.90;;;;;;;0.02;78.47;95716.53;4955821;28;20075;-43
2021/01/13 06:05:33;;;;;;;14.15;8.32;;;;;;;0.07;77.86;95718.41;4955230;28;20458;-42
2021/01/13 06:08:02;;;;;;;16.52;8.90;;;;;;;0.10;77.40;95723.97;4955963;28;20132;-43
2021/01/13 06:10:36;;;;;;;21.40;8.40;;;;;;;0.16;77.30;95730.06;4966865;28;20055;-42
2021/01/13 06:13:05;;;;;;;17.83;8.40;;;;;;;-0.17;78.31;95728.81;4974876;28;20496;-45
2021/01/13 06:15:35;;;;;;;17.17;8.35;;;;;;;-0.21;78.49;95727.75;4971997;28;20073;-42
2021/01/13 06:18:02;;;;;;;15.73;8.82;;;;;;;-0.28;78.72;95722.72;4955313;28;20151;-41
2021/01/13 06:20:30;;;;;;;17.30;9.63;;;;;;;-0.28;78.69;95726.19;4970960;28;20134;-43
2021/01/13 06:22:58;;;;;;;18.00;7.65;;;;;;;-0.18;77.92;95724.56;4974367;28;20050;-43
2021/01/13 06:25:31;;;;;;;22.50;8.68;;;;;;;-0.28;78.44;95730.69;4973858;28;20082;-46
2021/01/13 06:27:57;;;;;;;18.88;8.95;;;;;;;-0.16;77.83;95728.56;4974432;28;20471;-42
2021/01/13 06:30:29;;;;;;;20.83;8.18;;;;;;;-0.04;77.55;95744.22;4957619;28;20051;-43
2021/01/13 06:33:08;;;;;;;17.08;9.07;;;;;;;-0.07;77.47;95740.22;4955921;28;20478;-44
2021/01/13 06:35:37;;;;;;;18.63;8.30;;;;;;;-0.01;77.29;95741.00;4973573;28;20479;-42
2021/01/13 06:38:07;;;;;;;16.27;8.75;;;;;;;-0.19;77.50;95733.63;4973000;28;20109;-41
2021/01/13 06:40:34;;;;;;;22.02;9.82;;;;;;;-0.05;77.06;95737.31;4974557;28;20078;-42
2021/01/13 06:43:13;;;;;;;20.40;9.93;;;;;;;-0.13;77.83;95737.84;4973952;28;20149;-43
2021/01/13 06:45:40;;;;;;;17.00;9.10;;;;;;;-0.15;77.71;95732.81;4967874;28;20419;-43
2021/01/13 06:48:07;;;;;;;18.08;9.50;;;;;;;-0.09;77.54;95741.56;4992690;28;20205;-42
2021/01/13 06:50:39;;;;;;;22.02;9.82;;;;;;;0.02;77.16;95748.44;4959271;28;20085;-43
2021/01/13 06:53:07;;;;;;;16.15;8.57;;;;;;;-0.10;77.33;95743.44;4973626;28;20501;-43
2021/01/13 06:55:34;;;;;;;21.77;9.48;;;;;;;-0.26;77.78;95728.56;4981426;28;20434;-43
2021/01/13 06:58:19;;;;;;;17.45;8.85;;;;;;;-0.14;77.44;95744.22;4974519;28;20127;-44
2021/01/13 07:00:46;;;;;;;25.15;10.52;;;;;;;-0.13;76.94;95735.19;4970750;28;20093;-42
2021/01/13 07:03:28;;;;;;;20.20;9.80;;;;;;;-0.02;77.02;95771.34;4989754;28;20138;-43
2021/01/13 07:05:57;;;;;;;17.08;8.82;;;;;;;-0.14;77.37;95747.69;4972922;28;20058;-43
2021/01/13 07:08:23;;;;;;;18.92;9.30;;;;;;;-0.24;77.25;95748.50;4966674;28;20186;-43
2021/01/13 07:11:19;;;;;;;15.98;8.35;;;;;;;-0.32;78.35;95750.91;4976263;28;20050;-43
2021/01/13 07:13:52;;;;;;;22.17;8.98;;;;;;;-0.25;77.96;95751.44;4967590;28;20085;-44
2021/01/13 07:16:24;;;;;;;17.35;9.10;;;;;;;-0.25;77.79;95752.22;4974486;28;20086;-45
2021/01/13 07:18:51;;;;;;;20.17;9.27;;;;;;;-0.18;77.21;95748.50;4988637;28;20053;-43
2021/01/13 07:21:18;;;;;;;19.85;9.27;;;;;;;-0.27;77.85;95748.22;4975388;28;20538;-42
2021/01/13 07:23:46;;;;;;;20.20;9.05;;;;;;;0.01;77.01;95749.53;4990172;28;20046;-45
2021/01/13 07:26:13;;;;;;;22.27;9.77;;;;;;;0.15;75.94;95752.41;4973453;28;20082;-43
2021/01/13 07:28:40;;;;;;;16.77;8.38;;;;;;;-0.02;76.38;95761.50;4974925;28;20118;-44
2021/01/13 07:31:07;;;;;;;16.95;9.23;;;;;;;0.14;76.29;95748.97;4968633;28;20155;-41
2021/01/13 07:33:40;;;;;;;20.08;9.40;;;;;;;0.12;76.41;95751.09;4953628;28;20488;-43
2021/01/13 07:36:13;;;;;;;17.30;8.33;;;;;;;0.31;75.69;95753.19;4953693;28;20059;-42
2021/01/13 07:38:43;;;;;;;16.70;8.88;;;;;;;0.20;75.68;95755.06;4953433;28;20130;-42
2021/01/13 07:41:11;;;;;;;20.92;9.45;;;;;;;0.05;76.35;95755.09;4952535;28;20055;-46
2021/01/13 07:44:02;;;;;;;16.30;7.90;;;;;;;0.17;75.86;95750.28;4953040;28;20105;-42
2021/01/13 07:46:33;;;;;;;17.50;8.60;;;;;;;0.30;76.03;95756.91;4953740;28;20540;-45
2021/01/13 07:49:02;;;;;;;16.50;8.50;;;;;;;0.42;75.33;95752.06;4953415;28;20374;-44
2021/01/13 07:51:43;;;;;;;20.45;8.32;;;;;;;0.33;75.60;95754.50;4953707;29;20079;-41
2021/01/13 07:54:26;;;;;;;16.95;8.73;;;;;;;0.26;76.48;95753.19;4953195;28;20138;-42
2021/01/13 07:56:55;;;;;;;24.65;9.23;;;;;;;0.54;75.52;95757.09;4953810;28;20142;-43
2021/01/13 07:59:41;;;;;;;19.85;10.23;;;;;;;0.59;75.23;95757.06;4961973;28;20109;-44
2021/01/13 08:02:29;;;;;;;20.05;9.73;;;;;;;0.55;75.17;95758.66;4972305;28;20189;-42
2021/01/13 08:05:23;;;;;;;21.50;9.35;;;;;;;0.45;75.87;95754.19;4971845;28;20062;-42
2021/01/13 08:08:06;;;;;;;20.25;10.07;;;;;;;0.46;76.12;95761.91;4971359;28;20046;-41
2021/01/13 08:10:38;;;;;;;18.88;9.80;;;;;;;0.74;75.20;95758.84;4953135;29;20106;-44
2021/01/13 08:13:13;;;;;;;17.05;8.68;;;;;;;0.63;75.15;95763.44;4953080;29;20058;-41
2021/01/13 08:16:03;;;;;;;20.25;9.30;;;;;;;0.57;75.13;95765.31;4962159;28;20124;-42
2021/01/13 08:19:20;;;;;;;23.30;9.98;;;;;;;0.69;75.09;95759.69;4971912;28;20047;-45
2021/01/13 08:22:01;;;;;;;19.58;9.20;;;;;;;0.48;75.04;95766.94;4972210;28;20093;-44
2021/01/13 08:24:34;;;;;;;20.95;8.63;;;;;;;0.56;74.70;95766.41;4972264;28;20058;-43
2021/01/13 08:27:03;;;;;;;18.25;9.02;;;;;;;0.55;75.28;95771.97;4972791;28;20166;-43
2021/01/13 08:29:40;;;;;;;16.55;9.43;;;;;;;0.74;74.46;95782.81;4960556;28;20186;-44
2021/01/13 08:32:08;;;;;;;17.50;8.43;;;;;;;0.66;74.18;95785.00;4956997;28;20385;-44
2021/01/13 08:34:40;;;;;;;17.67;8.68;;;;;;;0.81;74.11;95791.31;4962217;28;20062;-42
2021/01/13 08:37:08;;;;;;;14.13;8.02;;;;;;;0.74;74.73;95780.16;4963437;28;20082;-42
2021/01/13 08:39:36;;;;;;;16.77;8.10;;;;;;;0.59;74.95;95779.16;4966212;28;20070;-43
2021/01/13 08:42:26;;;;;;;21.67;8.88;;;;;;;1.00;74.26;95796.81;4982489;28;20128;-41
2021/01/13 08:44:54;;;;;;;19.30;8.43;;;;;;;1.07;73.47;95797.31;4958464;28;20190;-43
2021/01/13 08:47:25;;;;;;;18.10;8.43;;;;;;;0.97;73.79;95803.47;4971559;28;20075;-42
2021/01/13 08:50:11;;;;;;;18.42;10.32;;;;;;;1.28;73.47;95806.00;4963419;28;20054;-42
2021/01/13 08:52:48;;;;;;;15.75;8.15;;;;;;;1.36;72.54;95805.41;4966315;28;20043;-43
2021/01/13 08:55:16;;;;;;;18.52;8.38;;;;;;;0.90;73.95;95808.31;4967832;28;20066;-42
2021/01/13 08:58:00;;;;;;;18.83;8.70;;;;;;;1.03;73.47;95802.38;4964658;28;20043;-42
2021/01/13 09:00:27;;;;;;;15.10;8.35;;;;;;;0.98;73.50;95809.63;4963586;28;20138;-43
2021/01/13 09:02:59;;;;;;;13.40;7.25;;;;;;;1.04;73.21;95835.16;4972574;28;20070;-43
2021/01/13 09:05:37;;;;;;;11.13;6.97;;;;;;;0.86;73.14;95812.59;4971353;28;20051;-44
2021/01/13 09:08:06;;;;;;;16.05;8.30;;;;;;;0.90;74.14;95811.78;4958541;28;20047;-43
2021/01/13 09:10:54;;;;;;;24.10;9.13;;;;;;;0.95;73.92;95816.31;4950782;28;20058;-41
2021/01/13 09:13:43;;;;;;;13.50;7.32;;;;;;;1.03;73.20;95822.91;4964075;28;20043;-43
2021/01/13 09:16:22;;;;;;;15.07;7.18;;;;;;;0.99;73.81;95825.31;4962831;28;20054;-42
2021/01/13 09:19:03;;;;;;;17.13;7.85;;;;;;;1.45;71.90;95829.63;4974272;28;20100;-43
2021/01/13 09:21:41;;;;;;;15.48;7.25;;;;;;;1.45;70.96;95830.41;4973113;28;20046;-44
2021/01/13 09:24:17;;;;;;;13.77;7.18;;;;;;;1.25;71.36;95825.19;4986683;28;20075;-42
2021/01/13 09:26:53;;;;;;;15.63;7.10;;;;;;;1.50;71.69;95825.06;4969487;28;20069;-42
2021/01/13 09:29:20;;;;;;;18.40;7.40;;;;;;;1.33;71.77;95827.28;4969736;28;20058;-42
2021/01/13 09:32:09;;;;;;;14.90;7.25;;;;;;;1.29;71.12;95834.22;4966697;28;20473;-42
2021/01/13 09:34:35;;;;;;;12.38;7.22;;;;;;;1.42;71.18;95836.28;4968117;28;20054;-44
2021/01/13 09:37:02;;;;;;;13.60;7.13;;;;;;;1.50;71.27;95842.94;4973249;28;20468;-42
2021/01/13 09:39:33;;;;;;;12.10;6.07;;;;;;;1.25;70.55;95846.53;4971820;28;20074;-43
2021/01/13 09:42:01;;;;;;;13.43;7.53;;;;;;;0.91;71.87;95839.19;4968554;28;20134;-42
2021/01/13 09:44:33;;;;;;;16.02;6.60;;;;;;;1.06;71.60;95841.81;4966870;28;20142;-45
2021/01/13 09:47:24;;;;;;;9.77;5.82;;;;;;;0.82;72.84;95846.19;4964445;28;20121;-44
2021/01/13 09:49:58;;;;;;;11.52;5.68;;;;;;;1.03;71.49;95845.03;4985436;28;20098;-43
2021/01/13 09:52:26;;;;;;;10.77;5.78;;;;;;;1.05;71.17;95853.53;4968057;28;20206;-44
2021/01/13 09:55:02;;;;;;;10.25;6.10;;;;;;;0.89;71.39;95844.03;4971103;28;20097;-41
2021/01/13 09:57:32;;;;;;;13.05;5.68;;;;;;;0.99;72.44;95853.84;4966586;28;20066;-43
2021/01/13 10:00:00;;;;;;;12.52;6.13;;;;;;;1.30;71.22;95855.31;4965268;28;20050;-42
2021/01/13 10:02:28;;;;;;;10.45;5.70;;;;;;;1.30;70.25;95857.97;4969399;28;20058;-39
2021/01/13 10:04:56;;;;;;;13.20;5.57;;;;;;;1.23;70.45;95859.31;4967115;28;20051;-43
2021/01/13 10:07:28;;;;;;;10.95;5.72;;;;;;;1.31;70.84;95854.22;4969948;28;20778;-40
2021/01/13 10:09:55;;;;;;;9.00;5.70;;;;;;;1.04;71.11;95849.28;4992674;28;20147;-43
2021/01/13 10:12:34;;;;;;;11.13;6.55;;;;;;;1.25;70.56;95857.19;4975207;28;20038;-43
2021/01/13 10:15:04;;;;;;;12.52;5.47;;;;;;;1.20;70.87;95850.00;4969077;28;20075;-42
2021/01/13 10:17:31;;;;;;;14.45;6.00;;;;;;;1.20;71.71;95849.22;4968529;28;20256;-44
2021/01/13 10:20:13;;;;;;;12.68;6.85;;;;;;;1.02;72.10;95854.09;4966308;28;20059;-43
2021/01/13 10:22:41;;;;;;;11.65;5.53;;;;;;;1.44;70.88;95855.47;4983667;28;20051;-41
2021/01/13 10:25:08;;;;;;;12.85;5.60;;;;;;;1.64;70.08;95852.69;4968573;28;20093;-43
2021/01/13 10:27:44;;;;;;;11.88;6.00;;;;;;;1.67;69.31;95847.88;4972507;28;20166;-42
2021/01/13 10:30:11;;;;;;;10.45;5.13;;;;;;;1.71;68.99;95838.25;4967573;28;20100;-42
2021/01/13 10:32:49;;;;;;;10.50;5.30;;;;;;;1.72;69.63;95843.28;4974124;28;20058;-40
2021/01/13 10:35:17;;;;;;;9.63;5.20;;;;;;;1.56;70.04;95844.47;4966444;28;20065;-45
2021/01/13 10:37:53;;;;;;;12.30;5.82;;;;;;;1.24;70.79;95844.94;4970387;28;20050;-42
2021/01/13 10:40:21;;;;;;;8.02;4.88;;;;;;;1.12;71.53;95846.03;4973546;28;20054;-41
2021/01/13 10:42:49;;;;;;;10.15;5.18;;;;;;;1.13;71.35;95842.31;4968403;28;20617;-42
2021/01/13 10:45:18;;;;;;;11.60;5.07;;;;;;;1.05;71.35;95826.91;4969017;28;20124;-39
2021/01/13 10:47:52;;;;;;;10.23;5.07;;;;;;;0.95;71.94;95836.81;4977088;28;20075;-41
2021/01/13 10:50:22;;;;;;;9.80;5.07;;;;;;;1.20;71.44;95838.53;4965933;28;20516;-41
2021/01/13 10:53:00;;;;;;;8.68;4.60;;;;;;;1.31;70.77;95824.09;4972600;28;20046;-42
2021/01/13 10:55:28;;;;;;;10.68;5.40;;;;;;;1.23;69.96;95822.78;4968181;28;20066;-42
2021/01/13 10:57:56;;;;;;;10.38;5.30;;;;;;;1.16;70.38;95825.75;4971623;28;20150;-44
2021/01/13 11:00:30;;;;;;;9.32;4.95;;;;;;;1.37;69.77;95828.34;4968294;28;20124;-44
2021/01/13 11:03:02;;;;;;;10.27;4.97;;;;;;;1.20;69.05;95822.56;4968422;28;20408;-43
2021/01/13 11:05:34;;;;;;;6.93;4.00;;;;;;;1.28;68.91;95814.78;4962754;28;20059;-44
2021/01/13 11:08:03;;;;;;;7.18;4.70;;;;;;;1.46;68.86;95808.00;4967084;28;20141;-45
2021/01/13 11:10:29;;;;;;;7.93;4.60;;;;;;;1.44;69.06;95804.81;4969949;28;20082;-44
2021/01/13 11:13:04;;;;;;;7.05;3.90;;;;;;;1.88;67.74;95806.63;4971863;28;20050;-45
2021/01/13 11:15:32;;;;;;;8.70;4.18;;;;;;;1.91;67.43;95798.06;4969039;28;20065;-43
2021/01/13 11:17:59;;;;;;;9.13;4.03;;;;;;;1.81;66.57;95792.81;4968267;28;20050;-48
2021/01/13 11:20:29;;;;;;;6.88;4.00;;;;;;;1.57;67.83;95801.53;4972077;28;20142;-45
2021/01/13 11:23:05;;;;;;;6.60;4.38;;;;;;;1.97;66.56;95788.94;4973399;28;20050;-42
2021/01/13 11:25:37;;;;;;;9.35;4.57;;;;;;;1.91;67.42;95781.25;4966397;28;20078;-45
2021/01/13 11:28:10;;;;;;;5.60;3.60;;;;;;;1.80;66.30;95783.22;4965914;28;20062;-45
2021/01/13 11:30:41;;;;;;;8.98;3.67;;;;;;;1.81;66.80;95785.59;4974941;28;20134;-42
2021/01/13 11:33:10;;;;;;;8.40;3.75;;;;;;;1.63;67.88;95789.75;4973007;28;20055;-42
2021/01/13 11:35:39;;;;;;;10.25;3.92;;;;;;;2.07;66.63;95793.38;4971927;28;20137;-42
2021/01/13 11:38:19;;;;;;;6.60;3.92;;;;;;;2.13;65.49;95775.47;4954487;28;20519;-44
2021/01/13 11:41:03;;;;;;;8.88;3.55;;;;;;;2.51;63.81;95779.06;4956392;28;20051;-42
2021/01/13 11:43:47;;;;;;;12.07;3.38;;;;;;;2.55;61.72;95772.06;4967295;28;20491;-40
2021/01/13 11:46:16;;;;;;;4.07;2.78;;;;;;;2.46;60.68;95782.56;4966828;28;20476;-39
2021/01/13 11:49:13;;;;;;;4.70;2.60;;;;;;;2.78;59.25;95778.47;4965610;28;20065;-42
2021/01/13 11:51:43;;;;;;;4.57;2.85;;;;;;;2.48;60.41;95774.28;4965365;28;20074;-41
2021/01/13 11:54:11;;;;;;;6.85;2.85;;;;;;;2.47;61.19;95770.84;4965373;28;20066;-44
2021/01/13 11:56:37;;;;;;;5.75;2.50;;;;;;;2.22;60.73;95774.56;4965876;28;20112;-44